Time;durP1;ratioP1;P1;durP2;ratioP2;P2;SDS_P1;SDS_P2;PMS_P1;PMS_P2;Temp;Humidity;BMP_temperature;BMP_pressure;BME280_temperature;BME280_humidity;BME280_pressure;Samples;Min_cycle;Max_cycle;Signal;HPM_P1;HPM_P2
2023/04/08 00:01:10;;;;;;;4.40;4.10;;;;;;;;;;6218752;23;20390;-66
2023/04/08 00:03:36;;;;;;;5.93;3.57;;;;;;;;;;6218394;23;20402;-67
2023/04/08 00:06:03;;;;;;;3.33;3.13;;;;;;;;;;6219535;23;20676;-66
2023/04/08 00:08:29;;;;;;;3.53;3.43;;;;;;;;;;6218428;23;20375;-67
2023/04/08 00:10:55;;;;;;;3.33;3.17;;;;;;;;;;6218323;23;20371;-67
2023/04/08 00:13:21;;;;;;;3.10;3.00;;;;;;;;;;6218781;23;20441;-66
2023/04/08 00:15:48;;;;;;;4.33;3.93;;;;;;;;;;6218312;23;20377;-68
2023/04/08 00:18:15;;;;;;;3.97;3.77;;;;;;;;;;6218542;23;20553;-65
2023/04/08 00:20:41;;;;;;;3.40;3.30;;;;;;;;;;6218611;23;20374;-65
2023/04/08 00:23:07;;;;;;;3.87;3.60;;;;;;;;;;6218301;23;20369;-67
2023/04/08 00:25:33;;;;;;;4.17;3.83;;;;;;;;;;6218225;23;20462;-70
2023/04/08 00:27:59;;;;;;;3.17;3.07;;;;;;;;;;6218653;23;20431;-71
2023/04/08 00:30:26;;;;;;;4.00;3.80;;;;;;;;;;6218211;23;20374;-69
2023/04/08 00:32:53;;;;;;;3.93;3.83;;;;;;;;;;6218517;23;20382;-66
2023/04/08 00:35:19;;;;;;;3.43;3.33;;;;;;;;;;6218455;23;20375;-67
2023/04/08 00:37:44;;;;;;;3.17;2.67;;;;;;;;;;6218051;23;20955;-66
2023/04/08 00:40:11;;;;;;;3.40;3.30;;;;;;;;;;6218432;23;20367;-66
2023/04/08 00:42:37;;;;;;;2.67;2.67;;;;;;;;;;6218196;23;20382;-72
2023/04/08 00:45:04;;;;;;;2.53;2.53;;;;;;;;;;6218499;23;20375;-73
2023/04/08 00:47:30;;;;;;;2.97;2.33;;;;;;;;;;6218059;23;20387;-68
2023/04/08 00:49:56;;;;;;;2.70;2.70;;;;;;;;;;6218437;23;20454;-69
2023/04/08 00:52:22;;;;;;;3.07;2.87;;;;;;;;;;6216532;23;20391;-69
2023/04/08 00:54:48;;;;;;;2.97;2.97;;;;;;;;;;6216889;23;20380;-65
2023/04/08 00:57:14;;;;;;;2.97;2.97;;;;;;;;;;6216674;23;20414;-66
2023/04/08 00:59:40;;;;;;;3.73;3.53;;;;;;;;;;6216464;23;20929;-66
2023/04/08 01:02:06;;;;;;;3.70;3.50;;;;;;;;;;6216298;23;20371;-65
2023/04/08 01:04:35;;;;;;;3.53;3.40;;;;;;;;;;6216432;23;20398;-65
2023/04/08 01:07:22;;;;;;;4.10;3.80;;;;;;;;;;6214885;23;20478;-69
2023/04/08 01:09:51;;;;;;;3.70;3.40;;;;;;;;;;6216351;23;20380;-68
2023/04/08 01:12:19;;;;;;;3.30;3.10;;;;;;;;;;6216357;23;20457;-65
2023/04/08 01:14:47;;;;;;;3.23;3.13;;;;;;;;;;6216730;23;20385;-69
2023/04/08 01:17:13;;;;;;;3.53;3.43;;;;;;;;;;6216233;23;20494;-65
2023/04/08 01:19:41;;;;;;;3.30;3.30;;;;;;;;;;6216916;23;20371;-65
2023/04/08 01:22:15;;;;;;;3.17;3.07;;;;;;;;;;6216663;23;20386;-65
2023/04/08 01:24:43;;;;;;;2.90;2.70;;;;;;;;;;6216449;23;20418;-66
2023/04/08 01:27:10;;;;;;;3.10;3.00;;;;;;;;;;6216331;23;20442;-66
2023/04/08 01:29:36;;;;;;;3.33;3.03;;;;;;;;;;6216634;23;20383;-71
2023/04/08 01:32:03;;;;;;;3.10;3.10;;;;;;;;;;6215972;23;20364;-68
2023/04/08 01:34:29;;;;;;;3.50;3.40;;;;;;;;;;6216237;23;20375;-73
2023/04/08 01:36:56;;;;;;;3.70;3.10;;;;;;;;;;6177462;23;20450;-65
2023/04/08 01:39:22;;;;;;;3.07;2.97;;;;;;;;;;6156689;23;20708;-71
2023/04/08 01:41:49;;;;;;;3.67;3.40;;;;;;;;;;6156206;23;20832;-71
2023/04/08 01:44:16;;;;;;;3.23;3.13;;;;;;;;;;6156368;23;20404;-65
2023/04/08 01:46:42;;;;;;;3.47;3.13;;;;;;;;;;6156580;23;20451;-66
2023/04/08 01:49:08;;;;;;;4.20;3.30;;;;;;;;;;6156891;23;20386;-72
2023/04/08 01:51:35;;;;;;;3.37;3.17;;;;;;;;;;6156168;23;20827;-73
2023/04/08 01:54:01;;;;;;;3.70;3.50;;;;;;;;;;6156548;23;20677;-65
2023/04/08 01:56:29;;;;;;;3.33;3.13;;;;;;;;;;6156120;23;20377;-65
2023/04/08 01:58:56;;;;;;;5.00;3.40;;;;;;;;;;6156438;23;20448;-68
2023/04/08 02:01:24;;;;;;;3.60;3.50;;;;;;;;;;6156274;23;20416;-69
2023/04/08 02:03:51;;;;;;;2.80;2.70;;;;;;;;;;6155537;23;20405;-66
2023/04/08 02:06:17;;;;;;;3.23;3.07;;;;;;;;;;6156046;23;20391;-65
2023/04/08 02:08:43;;;;;;;5.70;3.47;;;;;;;;;;6156401;23;20404;-66
2023/04/08 02:11:09;;;;;;;2.83;2.63;;;;;;;;;;6156288;23;20435;-67
2023/04/08 02:13:36;;;;;;;3.70;3.50;;;;;;;;;;6156302;23;20369;-66
2023/04/08 02:16:25;;;;;;;3.90;3.63;;;;;;;;;;6156019;23;20408;-65
2023/04/08 02:18:56;;;;;;;3.10;2.90;;;;;;;;;;6144306;23;20443;-70
2023/04/08 02:21:22;;;;;;;5.10;3.73;;;;;;;;;;6156288;23;20455;-68
2023/04/08 02:23:50;;;;;;;5.97;3.77;;;;;;;;;;6156261;23;20720;-66
2023/04/08 02:26:18;;;;;;;3.30;3.20;;;;;;;;;;6156213;23;20381;-66
2023/04/08 02:28:45;;;;;;;3.27;3.17;;;;;;;;;;6155955;23;20381;-65
2023/04/08 02:31:12;;;;;;;3.53;3.33;;;;;;;;;;6156258;23;20455;-72
2023/04/08 02:33:38;;;;;;;4.30;3.90;;;;;;;;;;6156112;23;20408;-66
2023/04/08 02:36:05;;;;;;;4.10;4.00;;;;;;;;;;6155683;23;20839;-64
2023/04/08 02:38:31;;;;;;;2.43;2.43;;;;;;;;;;6209213;23;20514;-73
2023/04/08 02:40:57;;;;;;;2.03;1.93;;;;;;;;;;6215800;23;20429;-66
2023/04/08 02:43:31;;;;;;;3.00;2.90;;;;;;;;;;6215804;23;20422;-67
2023/04/08 02:45:58;;;;;;;3.90;2.80;;;;;;;;;;6215856;23;20363;-67
2023/04/08 02:48:24;;;;;;;5.00;4.50;;;;;;;;;;6215895;23;20513;-65
2023/04/08 02:50:50;;;;;;;7.80;7.03;;;;;;;;;;6216246;23;20421;-65
2023/04/08 02:53:16;;;;;;;4.27;4.07;;;;;;;;;;6215772;23;20383;-66
2023/04/08 02:55:43;;;;;;;3.33;3.17;;;;;;;;;;6215334;23;20371;-66
2023/04/08 02:58:08;;;;;;;2.87;2.77;;;;;;;;;;6216266;23;20473;-67
2023/04/08 03:00:35;;;;;;;3.00;2.90;;;;;;;;;;6215707;23;20379;-65
2023/04/08 03:03:00;;;;;;;3.00;2.70;;;;;;;;;;6215984;23;20460;-66
2023/04/08 03:05:26;;;;;;;2.73;2.63;;;;;;;;;;6215351;23;20371;-67
2023/04/08 03:07:52;;;;;;;2.50;2.40;;;;;;;;;;6215290;23;20387;-67
2023/04/08 03:10:18;;;;;;;2.03;2.03;;;;;;;;;;6215537;23;20433;-66
2023/04/08 03:12:44;;;;;;;2.07;2.07;;;;;;;;;;6215703;23;20748;-64
2023/04/08 03:15:10;;;;;;;2.23;2.13;;;;;;;;;;6215045;23;20382;-66
2023/04/08 03:17:36;;;;;;;1.80;1.80;;;;;;;;;;6215514;23;20512;-69
2023/04/08 03:20:03;;;;;;;2.87;1.87;;;;;;;;;;6215236;23;20729;-65
2023/04/08 03:22:30;;;;;;;2.47;2.37;;;;;;;;;;6215584;23;20437;-72
2023/04/08 03:24:55;;;;;;;3.20;2.90;;;;;;;;;;6215567;23;20375;-70
2023/04/08 03:27:21;;;;;;;2.60;2.40;;;;;;;;;;6215630;23;20677;-71
2023/04/08 03:29:47;;;;;;;3.30;3.00;;;;;;;;;;6215199;23;20509;-66
2023/04/08 03:32:13;;;;;;;2.77;2.67;;;;;;;;;;6215127;23;20521;-66
2023/04/08 03:34:39;;;;;;;2.20;2.10;;;;;;;;;;6215548;23;20382;-66
2023/04/08 03:37:06;;;;;;;2.37;2.33;;;;;;;;;;6214963;23;20438;-68
2023/04/08 03:39:32;;;;;;;1.97;1.90;;;;;;;;;;6215866;23;20653;-67
2023/04/08 03:41:59;;;;;;;6.30;2.80;;;;;;;;;;6213530;23;20371;-65
2023/04/08 03:44:25;;;;;;;2.07;2.07;;;;;;;;;;6215481;23;20856;-69
2023/04/08 03:46:51;;;;;;;2.67;2.23;;;;;;;;;;6215140;23;20375;-71
2023/04/08 03:49:17;;;;;;;2.70;2.60;;;;;;;;;;6215225;23;20387;-67
2023/04/08 03:51:43;;;;;;;1.90;1.90;;;;;;;;;;6215162;23;20387;-69
2023/04/08 03:54:09;;;;;;;3.83;1.60;;;;;;;;;;6214026;23;20875;-70
2023/04/08 03:56:35;;;;;;;1.93;1.83;;;;;;;;;;6216306;23;20848;-68
2023/04/08 03:59:01;;;;;;;1.47;1.40;;;;;;;;;;6215169;23;20876;-69
2023/04/08 04:01:27;;;;;;;2.00;1.77;;;;;;;;;;6213418;23;20470;-71
2023/04/08 04:03:53;;;;;;;2.27;1.47;;;;;;;;;;6215055;23;20856;-65
2023/04/08 04:06:19;;;;;;;1.47;1.47;;;;;;;;;;6215428;23;20387;-69
2023/04/08 04:08:45;;;;;;;1.13;1.13;;;;;;;;;;6215724;23;20434;-67
2023/04/08 04:11:11;;;;;;;1.57;1.57;;;;;;;;;;6215284;23;20387;-67
2023/04/08 04:13:37;;;;;;;1.60;1.60;;;;;;;;;;6215717;23;20386;-66
2023/04/08 04:16:03;;;;;;;1.40;1.40;;;;;;;;;;6215635;23;20688;-67
2023/04/08 04:18:31;;;;;;;1.80;1.80;;;;;;;;;;6215252;23;20437;-66
2023/04/08 04:20:58;;;;;;;2.10;1.60;;;;;;;;;;6215044;23;20376;-68
2023/04/08 04:23:24;;;;;;;1.37;1.37;;;;;;;;;;6215235;23;20383;-66
2023/04/08 04:25:50;;;;;;;1.23;1.23;;;;;;;;;;6215042;23;20849;-69
2023/04/08 04:28:16;;;;;;;1.43;1.43;;;;;;;;;;6217182;23;20382;-69
2023/04/08 04:30:42;;;;;;;1.73;1.63;;;;;;;;;;6216855;23;20382;-74
2023/04/08 04:33:08;;;;;;;1.50;1.50;;;;;;;;;;6215351;23;20526;-72
2023/04/08 04:35:34;;;;;;;1.17;1.17;;;;;;;;;;6217392;23;20394;-72
2023/04/08 04:38:00;;;;;;;1.13;1.13;;;;;;;;;;6216525;23;20456;-72
2023/04/08 04:40:26;;;;;;;1.70;1.30;;;;;;;;;;6216703;23;20375;-66
2023/04/08 04:42:52;;;;;;;2.17;2.07;;;;;;;;;;6217403;23;20382;-67
2023/04/08 04:45:18;;;;;;;1.60;1.60;;;;;;;;;;6216681;23;20386;-73
2023/04/08 04:47:44;;;;;;;1.70;1.70;;;;;;;;;;6216954;23;20432;-73
2023/04/08 04:50:10;;;;;;;1.87;1.87;;;;;;;;;;6216869;23;20382;-73
2023/04/08 04:52:36;;;;;;;1.77;1.77;;;;;;;;;;6217288;23;20382;-71
2023/04/08 04:55:02;;;;;;;3.17;1.57;;;;;;;;;;6217005;23;20454;-71
2023/04/08 04:57:28;;;;;;;2.37;2.27;;;;;;;;;;6216794;23;20740;-69
2023/04/08 04:59:54;;;;;;;2.00;1.90;;;;;;;;;;6217238;23;20407;-72
2023/04/08 05:02:20;;;;;;;2.23;2.23;;;;;;;;;;6214949;23;20387;-72
2023/04/08 05:04:46;;;;;;;2.00;2.00;;;;;;;;;;6216447;23;20380;-66
2023/04/08 05:07:12;;;;;;;2.00;2.00;;;;;;;;;;6216871;23;20454;-74
2023/04/08 05:09:38;;;;;;;1.40;1.40;;;;;;;;;;6216478;23;20371;-74
2023/04/08 05:12:04;;;;;;;1.90;1.80;;;;;;;;;;6216732;23;20861;-73
2023/04/08 05:14:30;;;;;;;2.53;2.33;;;;;;;;;;6216918;23;20436;-74
2023/04/08 05:16:56;;;;;;;2.20;2.20;;;;;;;;;;6216547;23;20516;-71
2023/04/08 05:19:22;;;;;;;3.63;2.30;;;;;;;;;;6216696;23;20399;-68
2023/04/08 05:21:48;;;;;;;1.90;1.90;;;;;;;;;;6216338;23;20371;-69
2023/04/08 05:24:14;;;;;;;1.63;1.63;;;;;;;;;;6216704;23;20434;-66
2023/04/08 05:26:40;;;;;;;3.50;1.97;;;;;;;;;;6216630;23;20473;-67
2023/04/08 05:29:06;;;;;;;1.63;1.63;;;;;;;;;;6216248;23;20414;-67
2023/04/08 05:31:34;;;;;;;2.27;2.17;;;;;;;;;;6216632;23;20374;-71
2023/04/08 05:34:00;;;;;;;1.20;1.20;;;;;;;;;;6216289;23;20382;-72
2023/04/08 05:36:26;;;;;;;2.53;2.10;;;;;;;;;;6216412;23;20371;-72
2023/04/08 05:38:52;;;;;;;1.83;1.83;;;;;;;;;;6216421;23;20435;-69
2023/04/08 05:41:18;;;;;;;4.43;1.80;;;;;;;;;;6216211;23;20697;-69
2023/04/08 05:43:44;;;;;;;1.47;1.47;;;;;;;;;;6216505;23;20388;-68
2023/04/08 05:46:10;;;;;;;2.50;2.30;;;;;;;;;;6216464;23;20457;-70
2023/04/08 05:48:37;;;;;;;1.80;1.80;;;;;;;;;;6216449;23;20382;-65
2023/04/08 05:51:03;;;;;;;1.97;1.90;;;;;;;;;;6214394;23;20414;-70
2023/04/08 05:53:30;;;;;;;2.00;1.90;;;;;;;;;;6216430;23;20462;-66
2023/04/08 05:55:56;;;;;;;1.30;1.30;;;;;;;;;;6216137;23;20375;-67
2023/04/08 05:58:22;;;;;;;1.47;1.43;;;;;;;;;;6216033;23;20992;-68
2023/04/08 06:00:48;;;;;;;2.10;2.00;;;;;;;;;;6215726;23;20927;-67
2023/04/08 06:03:14;;;;;;;1.83;1.83;;;;;;;;;;6216291;23;20458;-66
2023/04/08 06:05:40;;;;;;;2.00;2.00;;;;;;;;;;6215863;23;20398;-73
2023/04/08 06:08:06;;;;;;;2.00;1.90;;;;;;;;;;6215902;23;20433;-70
2023/04/08 06:10:32;;;;;;;1.67;1.67;;;;;;;;;;6215897;23;20367;-70
2023/04/08 06:12:58;;;;;;;2.60;2.07;;;;;;;;;;6216137;23;20386;-68
2023/04/08 06:15:25;;;;;;;2.37;2.17;;;;;;;;;;6215773;23;20367;-67
2023/04/08 06:17:51;;;;;;;2.80;2.60;;;;;;;;;;6216037;23;20414;-66
2023/04/08 06:20:17;;;;;;;3.70;2.77;;;;;;;;;;6215609;23;20371;-64
2023/04/08 06:22:43;;;;;;;2.93;2.73;;;;;;;;;;6216095;23;20385;-64
2023/04/08 06:25:09;;;;;;;2.90;2.80;;;;;;;;;;6215568;23;20387;-66
2023/04/08 06:27:35;;;;;;;3.17;2.50;;;;;;;;;;6214186;23;20387;-65
2023/04/08 06:30:01;;;;;;;2.63;2.50;;;;;;;;;;6215956;23;20421;-65
2023/04/08 06:32:27;;;;;;;2.70;2.60;;;;;;;;;;6189321;23;20433;-65
2023/04/08 06:34:53;;;;;;;3.63;3.43;;;;;;;;;;6215370;23;20700;-65
2023/04/08 06:37:19;;;;;;;2.80;2.70;;;;;;;;;;6215173;23;20450;-65
2023/04/08 06:39:45;;;;;;;3.47;3.23;;;;;;;;;;6189320;23;20381;-65
2023/04/08 06:42:11;;;;;;;3.03;2.93;;;;;;;;;;6215493;23;20383;-64
2023/04/08 06:44:37;;;;;;;2.83;2.73;;;;;;;;;;6215610;23;20371;-65
2023/04/08 06:47:04;;;;;;;2.53;2.43;;;;;;;;;;6215245;23;20427;-65
2023/04/08 06:49:30;;;;;;;2.27;2.27;;;;;;;;;;6215205;23;20727;-65
2023/04/08 06:51:56;;;;;;;3.40;3.27;;;;;;;;;;6215326;23;20375;-65
2023/04/08 06:54:22;;;;;;;2.70;2.60;;;;;;;;;;6215321;23;20451;-65
2023/04/08 06:56:49;;;;;;;2.77;2.77;;;;;;;;;;6215878;23;20374;-65
2023/04/08 06:59:15;;;;;;;3.10;2.90;;;;;;;;;;6215381;23;20391;-64
2023/04/08 07:01:41;;;;;;;3.23;3.13;;;;;;;;;;6215555;23;20406;-64
2023/04/08 07:04:07;;;;;;;3.93;3.73;;;;;;;;;;6215726;23;20446;-64
2023/04/08 07:06:33;;;;;;;3.10;2.90;;;;;;;;;;6216346;23;20737;-65
2023/04/08 07:08:59;;;;;;;3.13;3.03;;;;;;;;;;6215291;23;20414;-64
2023/04/08 07:11:25;;;;;;;2.87;2.77;;;;;;;;;;6215056;23;20379;-64
2023/04/08 07:13:51;;;;;;;3.20;3.00;;;;;;;;;;6215127;23;20379;-64
2023/04/08 07:16:17;;;;;;;3.23;3.13;;;;;;;;;;6215525;23;20386;-65
2023/04/08 07:18:43;;;;;;;2.87;2.77;;;;;;;;;;6215243;23;20435;-64
2023/04/08 07:21:09;;;;;;;2.77;2.67;;;;;;;;;;6215777;23;20446;-64
2023/04/08 07:23:35;;;;;;;2.50;2.40;;;;;;;;;;6215270;23;20841;-64
2023/04/08 07:26:02;;;;;;;2.50;2.43;;;;;;;;;;6215526;23;20860;-70
2023/04/08 07:28:29;;;;;;;2.70;2.60;;;;;;;;;;6215628;23;20391;-64
2023/04/08 07:30:54;;;;;;;2.70;2.60;;;;;;;;;;6215466;23;20466;-64
2023/04/08 07:33:22;;;;;;;2.50;2.50;;;;;;;;;;6215099;23;20411;-65
2023/04/08 07:35:48;;;;;;;2.73;2.63;;;;;;;;;;6215533;23;20433;-64
2023/04/08 07:38:14;;;;;;;2.30;2.27;;;;;;;;;;6215457;23;20900;-65
2023/04/08 07:40:40;;;;;;;2.07;1.97;;;;;;;;;;6215504;23;20381;-64
2023/04/08 07:43:08;;;;;;;2.20;2.20;;;;;;;;;;6215434;23;20685;-64
2023/04/08 07:45:34;;;;;;;3.63;2.53;;;;;;;;;;6215437;23;20375;-64
2023/04/08 07:48:00;;;;;;;2.40;2.40;;;;;;;;;;6215047;23;20712;-64
2023/04/08 07:50:26;;;;;;;2.30;2.27;;;;;;;;;;6215241;23;20402;-65
2023/04/08 07:52:52;;;;;;;2.73;2.53;;;;;;;;;;6214986;23;20383;-65
2023/04/08 07:55:18;;;;;;;2.50;2.10;;;;;;;;;;6215297;23;20375;-66
2023/04/08 07:57:45;;;;;;;6.00;2.07;;;;;;;;;;6214958;23;20998;-65
2023/04/08 08:00:11;;;;;;;2.00;2.00;;;;;;;;;;6215311;23;20398;-64
2023/04/08 08:02:37;;;;;;;2.87;2.77;;;;;;;;;;6217375;23;20379;-65
2023/04/08 08:05:03;;;;;;;3.17;2.63;;;;;;;;;;6217026;23;20378;-66
2023/04/08 08:07:29;;;;;;;2.10;2.00;;;;;;;;;;6217380;23;20461;-64
2023/04/08 08:09:55;;;;;;;7.23;3.50;;;;;;;;;;6217300;23;20430;-65
2023/04/08 08:12:21;;;;;;;4.03;3.77;;;;;;;;;;6217199;23;20379;-65
2023/04/08 08:14:47;;;;;;;3.77;3.47;;;;;;;;;;6217034;23;20837;-64
2023/04/08 08:17:13;;;;;;;4.10;3.90;;;;;;;;;;6216673;23;20421;-65
2023/04/08 08:19:39;;;;;;;3.50;3.40;;;;;;;;;;6217315;23;20383;-64
2023/04/08 08:22:05;;;;;;;6.27;5.87;;;;;;;;;;6216825;23;20915;-65
2023/04/08 08:24:31;;;;;;;5.60;5.13;;;;;;;;;;6217039;23;20386;-62
2023/04/08 08:26:57;;;;;;;6.90;6.47;;;;;;;;;;6217113;23;20371;-64
2023/04/08 08:29:24;;;;;;;8.70;7.20;;;;;;;;;;6216908;23;20379;-65
2023/04/08 08:31:50;;;;;;;7.27;6.67;;;;;;;;;;6216957;23;20402;-66
2023/04/08 08:34:18;;;;;;;7.83;7.00;;;;;;;;;;6217161;23;20390;-65
2023/04/08 08:36:44;;;;;;;8.40;7.60;;;;;;;;;;6216471;23;20371;-66
2023/04/08 08:39:10;;;;;;;7.53;6.80;;;;;;;;;;6216410;23;20446;-65
2023/04/08 08:41:36;;;;;;;7.07;6.47;;;;;;;;;;6217409;23;20440;-67
2023/04/08 08:44:05;;;;;;;7.67;6.87;;;;;;;;;;6217154;23;20765;-62
2023/04/08 08:46:31;;;;;;;6.80;6.13;;;;;;;;;;6216561;23;20437;-66
2023/04/08 08:48:57;;;;;;;7.27;6.67;;;;;;;;;;6216989;23;20406;-65
2023/04/08 08:51:23;;;;;;;10.13;7.30;;;;;;;;;;6216872;23;20876;-66
2023/04/08 08:53:49;;;;;;;7.67;6.93;;;;;;;;;;6216967;23;20376;-65
2023/04/08 08:56:15;;;;;;;8.00;7.20;;;;;;;;;;6216769;23;20424;-66
2023/04/08 08:58:41;;;;;;;8.93;7.17;;;;;;;;;;6216419;23;20497;-64
2023/04/08 09:01:26;;;;;;;8.50;7.80;;;;;;;;;;6216443;23;20380;-65
2023/04/08 09:04:14;;;;;;;9.30;8.17;;;;;;;;;;6215007;23;20391;-65
2023/04/08 09:06:40;;;;;;;9.63;8.20;;;;;;;;;;6197138;23;20387;-65
2023/04/08 09:09:09;;;;;;;8.67;7.80;;;;;;;;;;6215423;23;20728;-65
2023/04/08 09:11:37;;;;;;;8.50;7.80;;;;;;;;;;6215761;23;20432;-65
2023/04/08 09:14:03;;;;;;;9.00;7.30;;;;;;;;;;6215456;23;20152;-65
2023/04/08 09:16:31;;;;;;;11.37;7.47;;;;;;;;;;6216642;23;20368;-67
2023/04/08 09:19:07;;;;;;;9.20;7.23;;;;;;;;;;6217849;23;20513;-67
2023/04/08 09:21:34;;;;;;;7.43;6.63;;;;;;;;;;6217083;23;20363;-65
2023/04/08 09:24:00;;;;;;;6.87;6.20;;;;;;;;;;6216487;23;20441;-63
2023/04/08 09:26:26;;;;;;;5.03;4.70;;;;;;;;;;6217899;23;20386;-64
2023/04/08 09:28:58;;;;;;;9.37;8.50;;;;;;;;;;6216616;23;20442;-68
2023/04/08 09:31:28;;;;;;;7.23;6.67;;;;;;;;;;6214996;23;20399;-63
2023/04/08 09:33:59;;;;;;;8.07;7.20;;;;;;;;;;6216436;23;20386;-63
2023/04/08 09:36:28;;;;;;;9.07;8.27;;;;;;;;;;6216433;23;20908;-65
2023/04/08 09:38:55;;;;;;;7.60;6.93;;;;;;;;;;6190443;23;20508;-65
2023/04/08 09:41:22;;;;;;;6.50;6.00;;;;;;;;;;6216535;23;20487;-65
2023/04/08 09:43:50;;;;;;;7.13;6.53;;;;;;;;;;6216540;23;20375;-65
2023/04/08 09:46:17;;;;;;;7.30;6.60;;;;;;;;;;6216720;23;20387;-65
2023/04/08 09:48:49;;;;;;;6.33;5.93;;;;;;;;;;6216483;23;20402;-67
2023/04/08 09:51:17;;;;;;;6.90;6.40;;;;;;;;;;6216497;23;20398;-65
2023/04/08 09:53:46;;;;;;;8.30;7.40;;;;;;;;;;6214781;23;20395;-65
2023/04/08 09:56:13;;;;;;;7.97;7.23;;;;;;;;;;6216350;23;20454;-65
2023/04/08 09:58:41;;;;;;;9.00;8.13;;;;;;;;;;6215902;23;20442;-64
2023/04/08 10:01:11;;;;;;;9.17;8.40;;;;;;;;;;6217037;23;20421;-65
2023/04/08 10:03:40;;;;;;;8.20;7.40;;;;;;;;;;6216309;23;20808;-65
2023/04/08 10:06:09;;;;;;;8.17;7.47;;;;;;;;;;6216587;23;20371;-65
2023/04/08 10:08:35;;;;;;;9.03;7.43;;;;;;;;;;6216220;23;20747;-65
2023/04/08 10:11:01;;;;;;;5.77;5.37;;;;;;;;;;6216588;23;20371;-65
2023/04/08 10:13:28;;;;;;;6.47;6.00;;;;;;;;;;6216566;23;20710;-65
2023/04/08 10:16:13;;;;;;;7.30;6.70;;;;;;;;;;6216335;23;20383;-65
2023/04/08 10:18:39;;;;;;;8.40;7.37;;;;;;;;;;6216428;23;20501;-66
2023/04/08 10:21:05;;;;;;;8.07;7.37;;;;;;;;;;6215607;23;20388;-66
2023/04/08 10:24:06;;;;;;;6.80;6.30;;;;;;;;;;6215900;23;20868;-65
2023/04/08 10:26:33;;;;;;;7.07;6.37;;;;;;;;;;6095328;23;20475;-65
2023/04/08 10:29:17;;;;;;;8.27;7.47;;;;;;;;;;6192717;23;20386;-65
2023/04/08 10:31:44;;;;;;;6.13;5.73;;;;;;;;;;6216598;23;20371;-66
2023/04/08 10:34:16;;;;;;;7.70;7.00;;;;;;;;;;6215848;23;20373;-65
2023/04/08 10:36:43;;;;;;;10.17;8.27;;;;;;;;;;6215935;23;20844;-66
2023/04/08 10:39:09;;;;;;;6.90;6.53;;;;;;;;;;6215720;23;20454;-66
2023/04/08 10:41:35;;;;;;;7.47;6.77;;;;;;;;;;6216196;23;20371;-65
2023/04/08 10:44:04;;;;;;;6.07;5.57;;;;;;;;;;6217314;23;20379;-66
2023/04/08 10:46:37;;;;;;;6.83;5.90;;;;;;;;;;6216281;23;20814;-65
2023/04/08 10:49:03;;;;;;;7.17;6.57;;;;;;;;;;6215941;23;20363;-65
2023/04/08 10:51:33;;;;;;;6.33;5.67;;;;;;;;;;6216133;23;20375;-66
2023/04/08 10:54:07;;;;;;;4.53;4.23;;;;;;;;;;6214367;23;20478;-65
2023/04/08 10:56:33;;;;;;;7.23;6.63;;;;;;;;;;6216248;23;20453;-67
2023/04/08 10:58:59;;;;;;;7.10;6.70;;;;;;;;;;6217106;23;20434;-66
2023/04/08 11:01:26;;;;;;;6.97;6.27;;;;;;;;;;6214131;23;20426;-65
2023/04/08 11:03:52;;;;;;;7.80;6.40;;;;;;;;;;6215478;23;20678;-65
2023/04/08 11:06:18;;;;;;;6.80;6.30;;;;;;;;;;6215883;23;20405;-65
2023/04/08 11:08:44;;;;;;;8.33;7.67;;;;;;;;;;6215851;23;20416;-65
2023/04/08 11:11:10;;;;;;;6.37;5.97;;;;;;;;;;6216055;23;20441;-65
2023/04/08 11:13:37;;;;;;;9.50;8.10;;;;;;;;;;6215971;23;20414;-65
2023/04/08 11:16:10;;;;;;;8.90;7.30;;;;;;;;;;6216036;23;20371;-66
2023/04/08 11:18:37;;;;;;;6.20;5.87;;;;;;;;;;6215618;23;20518;-65
2023/04/08 11:21:03;;;;;;;5.07;4.90;;;;;;;;;;6215605;23;20462;-66
2023/04/08 11:23:29;;;;;;;4.40;4.30;;;;;;;;;;6215899;23;20440;-65
2023/04/08 11:25:56;;;;;;;4.10;4.00;;;;;;;;;;6215954;23;20831;-67
2023/04/08 11:28:22;;;;;;;6.30;5.67;;;;;;;;;;6215958;23;20389;-66
2023/04/08 11:30:48;;;;;;;5.97;5.63;;;;;;;;;;6213892;23;20466;-65
2023/04/08 11:33:14;;;;;;;6.07;5.60;;;;;;;;;;6215909;23;20389;-66
2023/04/08 11:35:41;;;;;;;6.67;6.27;;;;;;;;;;6215725;23;20402;-65
2023/04/08 11:38:08;;;;;;;5.23;5.03;;;;;;;;;;6215314;23;20450;-65
2023/04/08 11:40:34;;;;;;;4.50;4.30;;;;;;;;;;6215775;23;20423;-65
2023/04/08 11:43:08;;;;;;;6.07;5.67;;;;;;;;;;6215859;23;20380;-65
2023/04/08 11:45:38;;;;;;;8.00;6.40;;;;;;;;;;6215409;23;20691;-65
2023/04/08 11:48:13;;;;;;;7.10;6.60;;;;;;;;;;6215834;23;20398;-68
2023/04/08 11:50:39;;;;;;;6.70;6.23;;;;;;;;;;6215725;23;20386;-69
2023/04/08 11:53:16;;;;;;;4.83;4.50;;;;;;;;;;6215778;23;20379;-65
2023/04/08 11:55:42;;;;;;;4.23;4.03;;;;;;;;;;6215942;23;20382;-65
2023/04/08 11:58:08;;;;;;;4.40;4.00;;;;;;;;;;6215405;23;20430;-65
2023/04/08 12:00:34;;;;;;;2.90;2.80;;;;;;;;;;6215605;23;20375;-65
2023/04/08 12:03:00;;;;;;;3.63;3.47;;;;;;;;;;6215296;23;20389;-65
2023/04/08 12:05:26;;;;;;;4.40;4.20;;;;;;;;;;6215359;23;20371;-65
2023/04/08 12:07:52;;;;;;;3.90;3.73;;;;;;;;;;6215389;23;20782;-66
2023/04/08 12:10:18;;;;;;;3.70;3.60;;;;;;;;;;6215197;23;20426;-67
2023/04/08 12:12:44;;;;;;;3.57;3.47;;;;;;;;;;6213516;23;20395;-66
2023/04/08 12:15:10;;;;;;;3.07;3.07;;;;;;;;;;6215451;23;20763;-66
2023/04/08 12:17:37;;;;;;;2.70;2.60;;;;;;;;;;6215592;23;20434;-65
2023/04/08 12:20:03;;;;;;;3.97;3.77;;;;;;;;;;6215478;23;20375;-65
2023/04/08 12:22:30;;;;;;;3.40;3.30;;;;;;;;;;6215641;23;20434;-65
2023/04/08 12:24:56;;;;;;;3.87;3.70;;;;;;;;;;6215533;23;20402;-65
2023/04/08 12:27:22;;;;;;;3.47;3.27;;;;;;;;;;6215238;23;20403;-65
2023/04/08 12:29:48;;;;;;;2.80;2.60;;;;;;;;;;6215436;23;20398;-66
2023/04/08 12:32:14;;;;;;;3.40;3.30;;;;;;;;;;6215112;23;20371;-65
2023/04/08 12:34:40;;;;;;;2.37;2.30;;;;;;;;;;6215828;23;20374;-66
2023/04/08 12:37:06;;;;;;;2.50;2.50;;;;;;;;;;6214876;23;20402;-66
2023/04/08 12:39:32;;;;;;;1.97;1.97;;;;;;;;;;6215443;23;20363;-66
2023/04/08 12:41:58;;;;;;;2.60;2.50;;;;;;;;;;6214732;23;20417;-65
2023/04/08 12:44:24;;;;;;;3.17;3.07;;;;;;;;;;6215023;23;20394;-65
2023/04/08 12:46:50;;;;;;;4.00;3.90;;;;;;;;;;6215093;23;20371;-65
2023/04/08 12:49:16;;;;;;;2.20;2.20;;;;;;;;;;6217079;23;20403;-65
2023/04/08 12:51:42;;;;;;;2.53;2.53;;;;;;;;;;6217218;23;20429;-65
2023/04/08 12:54:08;;;;;;;2.97;2.87;;;;;;;;;;6216845;23;20698;-65
2023/04/08 12:56:34;;;;;;;4.00;3.80;;;;;;;;;;6217366;23;20380;-65
2023/04/08 12:59:00;;;;;;;3.67;3.43;;;;;;;;;;6190375;23;20879;-65
2023/04/08 13:01:27;;;;;;;3.70;3.60;;;;;;;;;;6217086;23;20371;-65
2023/04/08 13:03:53;;;;;;;3.30;3.20;;;;;;;;;;6215413;23;20395;-65
2023/04/08 13:06:19;;;;;;;4.43;4.23;;;;;;;;;;6216934;23;20363;-65
2023/04/08 13:08:46;;;;;;;5.07;4.67;;;;;;;;;;6215355;23;20380;-65
2023/04/08 13:11:12;;;;;;;8.07;5.30;;;;;;;;;;6215036;23;20390;-65
2023/04/08 13:13:38;;;;;;;6.30;5.80;;;;;;;;;;6217069;23;20375;-65
2023/04/08 13:19:07;;;;;;;7.80;7.20;;;;;;;;;;6216763;23;20756;-65
2023/04/08 13:21:33;;;;;;;7.63;7.03;;;;;;;;;;6217032;23;20372;-65
2023/04/08 13:23:59;;;;;;;7.53;6.87;;;;;;;;;;6216699;23;20910;-65
2023/04/08 13:26:25;;;;;;;3.67;3.53;;;;;;;;;;6217220;23;20682;-65
2023/04/08 13:28:51;;;;;;;5.10;4.83;;;;;;;;;;6217300;23;20367;-65
2023/04/08 13:31:17;;;;;;;7.20;6.50;;;;;;;;;;6216545;23;20454;-64
2023/04/08 13:33:43;;;;;;;6.20;5.70;;;;;;;;;;6215056;23;20869;-65
2023/04/08 13:39:13;;;;;;;4.57;4.37;;;;;;;;;;6196136;23;20445;-65
2023/04/08 13:41:39;;;;;;;5.50;5.20;;;;;;;;;;6216688;23;20383;-65
2023/04/08 13:44:05;;;;;;;6.70;6.10;;;;;;;;;;6216575;23;20391;-65
2023/04/08 13:46:31;;;;;;;5.10;4.87;;;;;;;;;;6216500;23;20449;-65
2023/04/08 13:48:57;;;;;;;5.63;5.23;;;;;;;;;;6214147;23;20873;-65
2023/04/08 13:51:24;;;;;;;5.23;5.03;;;;;;;;;;6216727;23;20453;-65
2023/04/08 13:53:50;;;;;;;10.33;5.60;;;;;;;;;;6216691;23;20379;-65
2023/04/08 13:56:16;;;;;;;5.60;5.30;;;;;;;;;;6216308;23;20880;-65
2023/04/08 13:58:42;;;;;;;6.07;5.77;;;;;;;;;;6216865;23;20434;-65
2023/04/08 14:01:07;;;;;;;5.67;5.17;;;;;;;;;;6216219;23;20387;-65
2023/04/08 14:03:33;;;;;;;6.10;5.70;;;;;;;;;;6214764;23;20431;-65
2023/04/08 14:06:00;;;;;;;6.43;6.00;;;;;;;;;;6216547;23;20906;-65
2023/04/08 14:08:26;;;;;;;5.90;5.57;;;;;;;;;;6216549;23;20494;-65
2023/04/08 14:10:52;;;;;;;6.83;6.43;;;;;;;;;;6216198;23;20367;-65
2023/04/08 14:13:18;;;;;;;7.03;6.53;;;;;;;;;;6214702;23;20530;-64
2023/04/08 14:15:45;;;;;;;6.23;5.80;;;;;;;;;;6216121;23;20375;-65
2023/04/08 14:18:12;;;;;;;6.60;6.17;;;;;;;;;;6214485;23;20827;-65
2023/04/08 14:20:38;;;;;;;4.80;4.60;;;;;;;;;;6216466;23;20407;-65
2023/04/08 14:23:04;;;;;;;7.20;6.57;;;;;;;;;;6216173;23;20418;-65
2023/04/08 14:25:30;;;;;;;6.90;6.40;;;;;;;;;;6216159;23;20372;-65
2023/04/08 14:27:56;;;;;;;5.43;5.13;;;;;;;;;;6216488;23;20379;-65
2023/04/08 14:30:22;;;;;;;5.90;5.60;;;;;;;;;;6215976;23;20387;-65
2023/04/08 14:32:48;;;;;;;10.67;6.63;;;;;;;;;;6216052;23;20398;-65
2023/04/08 14:35:17;;;;;;;4.13;4.00;;;;;;;;;;6216273;23;20379;-65
2023/04/08 14:37:43;;;;;;;6.57;6.10;;;;;;;;;;6216001;23;20513;-64
2023/04/08 14:40:09;;;;;;;7.20;6.50;;;;;;;;;;6213966;23;20472;-60
2023/04/08 14:42:35;;;;;;;6.80;6.37;;;;;;;;;;6214204;23;20721;-64
2023/04/08 14:45:02;;;;;;;7.20;6.60;;;;;;;;;;6216133;23;20379;-67
2023/04/08 14:47:28;;;;;;;5.63;5.17;;;;;;;;;;6216192;23;20383;-65